createdAt,value
2019-05-26T00:01:33.170Z,5.23
2019-05-26T00:04:02.377Z,6.00
2019-05-26T00:06:31.995Z,5.60
2019-05-26T00:09:01.245Z,5.83
2019-05-26T00:11:30.423Z,6.90
2019-05-26T00:13:59.611Z,6.97
2019-05-26T00:16:28.772Z,7.27
2019-05-26T00:18:57.989Z,6.87
2019-05-26T00:21:27.194Z,5.03
2019-05-26T00:23:56.610Z,4.90
2019-05-26T00:26:25.646Z,7.90
2019-05-26T00:28:54.853Z,6.00
2019-05-26T00:31:24.075Z,6.50
2019-05-26T00:33:53.262Z,6.57
2019-05-26T00:36:22.461Z,9.07
2019-05-26T00:38:51.694Z,5.57
2019-05-26T00:41:20.953Z,4.23
2019-05-26T00:43:50.131Z,7.00
2019-05-26T00:46:19.384Z,8.43
2019-05-26T00:48:48.601Z,4.20
2019-05-26T00:51:17.843Z,8.53
2019-05-26T00:53:47.018Z,8.67
2019-05-26T00:56:16.204Z,15.67
2019-05-26T00:58:45.373Z,10.57
2019-05-26T01:01:14.822Z,9.00
2019-05-26T01:03:44.097Z,8.33
2019-05-26T01:06:13.272Z,8.07
2019-05-26T01:08:42.485Z,9.00
2019-05-26T01:11:11.688Z,7.97
2019-05-26T01:13:40.876Z,12.87
2019-05-26T01:16:10.100Z,15.50
2019-05-26T01:18:39.271Z,10.57
2019-05-26T01:21:08.433Z,7.83
2019-05-26T01:23:37.627Z,14.23
2019-05-26T01:26:06.787Z,11.63
2019-05-26T01:28:35.957Z,8.63
2019-05-26T01:31:05.196Z,11.77
2019-05-26T01:33:34.393Z,12.87
2019-05-26T01:36:03.585Z,14.63
2019-05-26T01:38:32.776Z,9.67
2019-05-26T01:41:01.950Z,11.73
2019-05-26T01:43:31.142Z,9.37
2019-05-26T01:46:00.312Z,8.40
2019-05-26T01:48:29.523Z,8.30
2019-05-26T01:50:58.726Z,7.63
2019-05-26T01:53:27.881Z,9.87
2019-05-26T01:55:57.073Z,7.57
2019-05-26T01:58:26.261Z,8.23
2019-05-26T02:00:55.465Z,7.23
2019-05-26T02:03:24.649Z,8.37
2019-05-26T02:05:53.845Z,8.33
2019-05-26T02:08:36.602Z,7.33
2019-05-26T02:10:52.343Z,6.33
2019-05-26T02:13:21.510Z,6.40
2019-05-26T02:15:50.694Z,6.63
2019-05-26T02:18:19.904Z,7.90
2019-05-26T02:20:49.118Z,9.90
2019-05-26T02:23:18.312Z,8.90
2019-05-26T02:25:47.525Z,8.63
2019-05-26T02:28:17.068Z,7.00
2019-05-26T02:30:46.299Z,8.57
2019-05-26T02:33:15.490Z,12.83
2019-05-26T02:35:44.655Z,9.63
2019-05-26T02:38:13.931Z,8.30
2019-05-26T02:40:43.189Z,7.23
2019-05-26T02:43:12.458Z,7.77
2019-05-26T02:45:41.622Z,9.87
2019-05-26T02:48:11.604Z,8.80
2019-05-26T02:50:40.867Z,8.10
2019-05-26T02:53:10.086Z,7.77
2019-05-26T02:55:39.266Z,6.83
2019-05-26T02:58:08.564Z,6.37
2019-05-26T03:00:40.344Z,5.97
2019-05-26T03:03:09.545Z,10.27
2019-05-26T03:05:38.732Z,8.33
2019-05-26T03:08:07.919Z,4.57
2019-05-26T03:10:37.703Z,9.70
2019-05-26T03:13:06.903Z,6.07
2019-05-26T03:15:36.103Z,7.73
2019-05-26T03:18:05.369Z,6.37
2019-05-26T03:20:37.109Z,5.17
2019-05-26T03:23:06.298Z,5.73
2019-05-26T03:25:35.663Z,5.23
2019-05-26T03:28:04.975Z,6.43
2019-05-26T03:30:34.125Z,6.10
2019-05-26T03:33:03.294Z,10.67
2019-05-26T03:35:32.521Z,7.87
2019-05-26T03:38:01.755Z,7.00
2019-05-26T03:40:31.008Z,7.40
2019-05-26T03:43:00.170Z,7.63
2019-05-26T03:45:47.978Z,10.10
2019-05-26T03:48:17.195Z,4.27
2019-05-26T03:50:46.449Z,5.10
2019-05-26T03:53:15.628Z,6.80
2019-05-26T03:55:44.891Z,5.00
2019-05-26T03:58:14.118Z,4.37
2019-05-26T04:00:43.446Z,4.57
2019-05-26T04:03:12.606Z,5.27
2019-05-26T04:05:41.810Z,4.63
2019-05-26T04:08:11.022Z,3.10
2019-05-26T04:10:40.241Z,5.47
2019-05-26T04:13:09.420Z,4.30
2019-05-26T04:15:38.592Z,3.43
2019-05-26T04:18:07.856Z,4.35
2019-05-26T04:20:37.008Z,5.17
2019-05-26T04:23:06.271Z,4.65
2019-05-26T04:25:35.465Z,3.92
2019-05-26T04:28:04.730Z,4.87
2019-05-26T04:30:33.937Z,6.53
2019-05-26T04:33:03.129Z,4.55
2019-05-26T04:35:32.316Z,3.00
2019-05-26T04:38:01.519Z,4.08
2019-05-26T04:40:30.737Z,3.70
2019-05-26T04:43:00.625Z,3.35
2019-05-26T04:45:29.826Z,3.42
2019-05-26T04:47:59.033Z,3.98
2019-05-26T04:50:28.245Z,2.72
2019-05-26T04:53:06.231Z,2.13
2019-05-26T04:55:26.679Z,2.33
2019-05-26T04:57:56.822Z,3.52
2019-05-26T05:00:26.013Z,2.77
2019-05-26T05:02:55.849Z,3.05
2019-05-26T05:05:25.078Z,3.65
2019-05-26T05:07:54.281Z,2.27
2019-05-26T05:10:23.524Z,3.12
2019-05-26T05:12:52.721Z,4.83
2019-05-26T05:15:21.905Z,3.10
2019-05-26T05:17:51.145Z,6.97
2019-05-26T05:20:20.366Z,3.25
2019-05-26T05:22:49.569Z,4.03
2019-05-26T05:25:18.866Z,7.55
2019-05-26T05:27:48.070Z,1.57
2019-05-26T05:30:17.249Z,3.27
2019-05-26T05:32:46.464Z,3.45
2019-05-26T05:35:15.764Z,2.33
2019-05-26T05:37:44.962Z,4.37
2019-05-26T05:40:14.145Z,3.33
2019-05-26T05:42:43.341Z,3.63
2019-05-26T05:45:12.570Z,2.93
2019-05-26T05:47:41.735Z,2.20
2019-05-26T05:50:10.904Z,2.90
2019-05-26T05:52:40.154Z,3.55
2019-05-26T05:55:09.322Z,2.60
2019-05-26T05:57:38.541Z,2.90
2019-05-26T06:00:07.821Z,2.52
2019-05-26T06:02:37.029Z,3.08
2019-05-26T06:05:06.265Z,5.10
2019-05-26T06:07:35.432Z,4.08
2019-05-26T06:10:05.318Z,4.70
2019-05-26T06:12:34.523Z,9.13
2019-05-26T06:15:04.766Z,3.37
2019-05-26T06:17:33.975Z,2.00
2019-05-26T06:20:03.198Z,2.70
2019-05-26T06:22:32.433Z,2.37
2019-05-26T06:25:01.893Z,1.60
2019-05-26T06:27:31.066Z,4.37
2019-05-26T06:30:00.323Z,2.33
2019-05-26T06:32:29.540Z,1.83
2019-05-26T06:34:58.738Z,2.13
2019-05-26T06:37:27.914Z,2.67
2019-05-26T06:39:57.150Z,1.97
2019-05-26T06:42:26.329Z,3.37
2019-05-26T06:44:55.525Z,1.43
2019-05-26T06:47:24.719Z,1.90
2019-05-26T06:49:54.025Z,4.50
2019-05-26T06:52:23.352Z,2.53
2019-05-26T06:54:52.516Z,4.87
2019-05-26T06:57:21.674Z,3.37
2019-05-26T06:59:50.862Z,2.60
2019-05-26T07:02:20.045Z,3.30
2019-05-26T07:04:49.259Z,2.73
2019-05-26T07:07:18.446Z,8.43
2019-05-26T07:09:47.688Z,4.30
2019-05-26T07:12:16.882Z,3.53
2019-05-26T07:14:46.075Z,5.80
2019-05-26T07:17:15.263Z,3.43
2019-05-26T07:19:44.461Z,4.63
2019-05-26T07:22:13.666Z,2.63
2019-05-26T07:24:43.156Z,4.97
2019-05-26T07:27:12.312Z,1.37
2019-05-26T07:29:42.265Z,3.17
2019-05-26T07:32:11.912Z,5.10
2019-05-26T07:34:41.131Z,5.20
2019-05-26T07:37:10.305Z,4.90
2019-05-26T07:39:39.502Z,1.37
2019-05-26T07:42:11.025Z,3.13
2019-05-26T07:44:37.906Z,2.57
2019-05-26T07:47:07.114Z,2.77
2019-05-26T07:49:36.301Z,3.60
2019-05-26T07:52:05.504Z,2.37
2019-05-26T07:54:34.680Z,2.97
2019-05-26T07:57:03.848Z,4.00
2019-05-26T07:59:33.013Z,2.90
2019-05-26T08:02:02.229Z,3.63
2019-05-26T08:04:31.577Z,4.23
2019-05-26T08:07:00.720Z,2.07
2019-05-26T08:09:29.905Z,5.27
2019-05-26T08:11:59.122Z,2.10
2019-05-26T08:14:28.340Z,5.63
2019-05-26T08:16:57.542Z,3.57
2019-05-26T08:19:26.752Z,2.95
2019-05-26T08:21:55.942Z,4.90
2019-05-26T08:24:25.134Z,11.70
2019-05-26T08:26:54.341Z,5.13
2019-05-26T08:29:23.521Z,2.50
2019-05-26T08:31:52.712Z,3.80
2019-05-26T08:34:21.940Z,3.75
2019-05-26T08:36:51.111Z,3.03
2019-05-26T08:39:20.313Z,4.30
2019-05-26T08:41:50.739Z,5.47
2019-05-26T08:44:19.913Z,5.37
2019-05-26T08:46:49.199Z,2.43
2019-05-26T08:49:18.396Z,2.33
2019-05-26T08:51:47.645Z,2.23
2019-05-26T08:54:16.827Z,3.73
2019-05-26T08:56:46.034Z,2.80
2019-05-26T08:59:15.207Z,5.83
2019-05-26T09:01:44.401Z,3.63
2019-05-26T09:04:13.582Z,3.23
2019-05-26T09:06:42.782Z,5.00
2019-05-26T09:09:11.950Z,1.87
2019-05-26T09:11:41.179Z,3.37
2019-05-26T09:14:10.349Z,37.53
2019-05-26T09:16:39.524Z,5.60
2019-05-26T09:19:08.706Z,4.53
2019-05-26T09:21:37.904Z,2.55
2019-05-26T09:24:07.101Z,3.45
2019-05-26T09:26:36.358Z,4.73
2019-05-26T09:29:05.626Z,3.15
2019-05-26T09:31:34.829Z,2.00
2019-05-26T09:34:04.072Z,3.73
2019-05-26T09:36:33.256Z,2.43
2019-05-26T09:39:02.430Z,1.52
2019-05-26T09:41:31.667Z,5.13
2019-05-26T09:44:00.897Z,3.67
2019-05-26T09:46:30.121Z,4.45
2019-05-26T09:49:01.087Z,5.10
2019-05-26T09:51:28.521Z,3.50
2019-05-26T09:54:01.656Z,3.67
2019-05-26T09:56:26.928Z,3.10
2019-05-26T09:58:56.134Z,3.35
2019-05-26T10:01:25.396Z,7.28
2019-05-26T10:03:54.601Z,5.78
2019-05-26T10:06:25.508Z,4.20
2019-05-26T10:08:54.746Z,5.17
2019-05-26T10:11:23.956Z,5.33
2019-05-26T10:13:53.262Z,3.22
2019-05-26T10:16:22.474Z,9.55
2019-05-26T10:18:51.663Z,5.80
2019-05-26T10:21:20.885Z,3.17
2019-05-26T10:23:53.010Z,2.40
2019-05-26T10:26:19.366Z,3.35
2019-05-26T10:28:48.630Z,3.80
2019-05-26T10:31:17.855Z,2.00
2019-05-26T10:33:47.032Z,1.37
2019-05-26T10:36:16.335Z,4.22
2019-05-26T10:38:45.504Z,2.00
2019-05-26T10:41:14.715Z,2.08
2019-05-26T10:43:47.297Z,5.05
2019-05-26T10:46:13.139Z,2.98
2019-05-26T10:48:42.382Z,2.40
2019-05-26T10:51:11.582Z,4.50
2019-05-26T10:53:40.832Z,3.65
2019-05-26T10:56:10.021Z,5.12
2019-05-26T10:58:39.279Z,3.20
2019-05-26T11:01:08.483Z,2.98
2019-05-26T11:03:37.707Z,3.40
2019-05-26T11:06:06.899Z,3.17
2019-05-26T11:08:36.117Z,2.52
2019-05-26T11:11:05.337Z,2.62
2019-05-26T11:13:34.541Z,3.05
2019-05-26T11:16:03.741Z,3.75
2019-05-26T11:18:32.925Z,3.40
2019-05-26T11:21:02.185Z,4.15
2019-05-26T11:23:31.415Z,3.83
2019-05-26T11:26:00.579Z,3.70
2019-05-26T11:28:29.827Z,4.15
2019-05-26T11:30:59.034Z,4.20
2019-05-26T11:33:28.223Z,3.60
2019-05-26T11:35:57.446Z,1.70
2019-05-26T11:38:26.668Z,9.18
2019-05-26T11:40:55.949Z,1.82
2019-05-26T11:43:25.194Z,4.17
2019-05-26T11:45:54.392Z,2.45
2019-05-26T11:48:23.575Z,2.22
2019-05-26T11:50:52.828Z,3.20
2019-05-26T11:53:22.025Z,2.50
2019-05-26T11:55:51.216Z,4.75
2019-05-26T11:58:20.440Z,3.35
2019-05-26T12:00:49.637Z,3.70
2019-05-26T12:03:18.913Z,2.98
2019-05-26T12:05:48.117Z,4.37
2019-05-26T12:08:17.326Z,4.37
2019-05-26T12:10:46.694Z,2.45
2019-05-26T12:13:15.866Z,4.65
2019-05-26T12:15:45.057Z,3.98
2019-05-26T12:18:14.251Z,3.42
2019-05-26T12:20:43.589Z,4.22
2019-05-26T12:23:12.769Z,3.85
2019-05-26T12:25:42.000Z,4.28
2019-05-26T12:28:11.208Z,3.95
2019-05-26T12:30:40.429Z,6.60
2019-05-26T12:33:09.692Z,3.92
2019-05-26T12:35:48.520Z,2.75
2019-05-26T12:38:18.064Z,3.40
2019-05-26T12:40:47.244Z,5.40
2019-05-26T12:43:16.433Z,7.67
2019-05-26T12:45:45.676Z,2.72
2019-05-26T12:48:14.869Z,5.15
2019-05-26T12:50:44.101Z,3.58
2019-05-26T12:53:13.335Z,3.77
2019-05-26T12:55:42.550Z,5.47
2019-05-26T12:58:11.754Z,4.28
2019-05-26T13:00:49.032Z,4.10
2019-05-26T13:03:10.238Z,4.85
2019-05-26T13:05:39.413Z,4.05
2019-05-26T13:08:08.633Z,5.05
2019-05-26T13:10:37.859Z,3.65
2019-05-26T13:13:07.036Z,3.85
2019-05-26T13:15:36.261Z,2.00
2019-05-26T13:18:05.497Z,4.60
2019-05-26T13:20:34.718Z,3.50
2019-05-26T13:23:03.932Z,2.37
2019-05-26T13:25:33.172Z,3.40
2019-05-26T13:28:02.408Z,3.45
2019-05-26T13:30:31.626Z,3.30
2019-05-26T13:33:00.874Z,9.78
2019-05-26T13:35:30.103Z,5.58
2019-05-26T13:37:59.348Z,6.00
2019-05-26T13:40:29.677Z,3.40
2019-05-26T13:42:57.782Z,4.42
2019-05-26T13:45:26.995Z,2.55
2019-05-26T13:47:56.215Z,5.03
2019-05-26T13:50:25.392Z,4.17
2019-05-26T13:52:54.577Z,5.20
2019-05-26T13:55:23.773Z,3.37
2019-05-26T13:57:53.022Z,3.40
2019-05-26T14:00:22.293Z,5.80
2019-05-26T14:02:51.496Z,5.70
2019-05-26T14:05:20.757Z,2.83
2019-05-26T14:07:49.954Z,5.35
2019-05-26T14:10:24.613Z,4.00
2019-05-26T14:12:53.813Z,5.05
2019-05-26T14:15:36.897Z,3.87
2019-05-26T14:17:52.214Z,5.10
2019-05-26T14:20:21.678Z,4.67
2019-05-26T14:22:50.882Z,4.17
2019-05-26T14:25:20.096Z,7.22
2019-05-26T14:27:49.302Z,3.75
2019-05-26T14:30:18.494Z,3.30
2019-05-26T14:32:47.710Z,4.45
2019-05-26T14:35:16.924Z,4.47
2019-05-26T14:37:46.137Z,4.22
2019-05-26T14:40:15.339Z,2.80
2019-05-26T14:42:44.535Z,4.55
2019-05-26T14:45:13.741Z,5.07
2019-05-26T14:47:42.926Z,8.10
2019-05-26T14:50:12.104Z,4.00
2019-05-26T14:52:41.325Z,4.60
2019-05-26T14:55:10.589Z,3.27
2019-05-26T14:57:39.797Z,5.72
2019-05-26T15:00:08.965Z,4.50
2019-05-26T15:02:38.237Z,7.40
2019-05-26T15:05:07.430Z,3.67
2019-05-26T15:07:36.623Z,3.83
2019-05-26T15:10:05.841Z,6.23
2019-05-26T15:12:35.010Z,6.10
2019-05-26T15:15:04.431Z,5.57
2019-05-26T15:17:33.855Z,5.90
2019-05-26T15:20:03.117Z,7.17
2019-05-26T15:22:32.287Z,7.40
2019-05-26T15:25:01.566Z,5.25
2019-05-26T15:27:30.721Z,4.23
2019-05-26T15:29:59.949Z,4.50
2019-05-26T15:32:29.147Z,5.30
2019-05-26T15:34:58.317Z,5.77
2019-05-26T15:37:27.507Z,4.17
2019-05-26T15:39:56.673Z,3.97
2019-05-26T15:42:25.874Z,6.33
2019-05-26T15:44:55.042Z,5.30
2019-05-26T15:47:24.214Z,5.03
2019-05-26T15:49:53.411Z,6.20
2019-05-26T15:52:22.593Z,6.77
2019-05-26T15:54:51.801Z,6.57
2019-05-26T15:57:21.000Z,6.50
2019-05-26T15:59:50.271Z,7.27
2019-05-26T16:02:19.462Z,6.13
2019-05-26T16:04:48.624Z,6.20
2019-05-26T16:07:17.795Z,7.70
2019-05-26T16:09:46.977Z,8.20
2019-05-26T16:12:16.217Z,6.93
2019-05-26T16:14:45.385Z,7.97
2019-05-26T16:17:14.561Z,6.67
2019-05-26T16:19:43.761Z,7.07
2019-05-26T16:22:12.964Z,6.87
2019-05-26T16:24:42.149Z,7.07
2019-05-26T16:27:19.329Z,5.90
2019-05-26T16:29:40.541Z,8.77
2019-05-26T16:32:09.745Z,7.03
2019-05-26T16:34:38.975Z,6.73
2019-05-26T16:37:08.164Z,7.03
2019-05-26T16:39:37.619Z,6.17
2019-05-26T16:42:06.657Z,10.53
2019-05-26T16:44:35.870Z,10.17
2019-05-26T16:47:05.070Z,7.47
2019-05-26T16:49:34.331Z,8.03
2019-05-26T16:52:03.526Z,9.93
2019-05-26T16:54:32.729Z,10.33
2019-05-26T16:57:01.989Z,9.90
2019-05-26T16:59:31.154Z,9.30
2019-05-26T17:02:00.367Z,8.73
2019-05-26T17:04:29.567Z,12.00
2019-05-26T17:06:58.776Z,12.13
2019-05-26T17:09:28.044Z,9.63
2019-05-26T17:11:57.240Z,10.50
2019-05-26T17:14:26.414Z,9.53
2019-05-26T17:17:11.590Z,10.53
2019-05-26T17:19:24.906Z,15.87
2019-05-26T17:21:54.117Z,10.10
2019-05-26T17:24:23.320Z,9.93
2019-05-26T17:26:52.511Z,8.80
2019-05-26T17:29:21.712Z,10.67
2019-05-26T17:31:50.917Z,9.07
2019-05-26T17:34:20.111Z,9.97
2019-05-26T17:36:49.308Z,11.17
2019-05-26T17:39:18.493Z,9.07
2019-05-26T17:41:47.705Z,9.40
2019-05-26T17:44:16.883Z,10.57
2019-05-26T17:46:46.078Z,9.80
2019-05-26T17:49:15.264Z,9.53
2019-05-26T17:51:44.472Z,12.20
2019-05-26T17:54:13.652Z,9.97
2019-05-26T17:56:42.871Z,10.13
2019-05-26T17:59:12.057Z,11.03
2019-05-26T18:01:41.230Z,9.33
2019-05-26T18:04:10.439Z,10.50
2019-05-26T18:06:39.617Z,10.27
2019-05-26T18:09:08.870Z,11.13
2019-05-26T18:11:38.075Z,10.40
2019-05-26T18:14:07.249Z,10.17
2019-05-26T18:16:36.483Z,8.80
2019-05-26T18:19:05.654Z,9.20
2019-05-26T18:21:34.831Z,9.87
2019-05-26T18:24:04.248Z,10.17
2019-05-26T18:26:33.585Z,11.73
2019-05-26T18:29:02.849Z,8.90
2019-05-26T18:31:32.045Z,9.50
2019-05-26T18:34:01.235Z,8.33
2019-05-26T18:36:30.434Z,8.33
2019-05-26T18:38:59.645Z,9.17
2019-05-26T18:41:28.841Z,8.47
2019-05-26T18:43:58.034Z,9.33
2019-05-26T18:46:27.196Z,8.37
2019-05-26T18:48:56.389Z,10.07
2019-05-26T18:51:25.635Z,8.07
2019-05-26T18:53:54.827Z,9.60
2019-05-26T18:56:24.580Z,9.20
2019-05-26T18:58:53.786Z,7.00
2019-05-26T19:01:22.958Z,7.90
2019-05-26T19:03:52.241Z,12.13
2019-05-26T19:06:21.453Z,8.13
2019-05-26T19:08:50.632Z,7.40
2019-05-26T19:11:19.820Z,8.50
2019-05-26T19:13:49.006Z,8.13
2019-05-26T19:16:18.237Z,10.30
2019-05-26T19:18:47.421Z,8.57
2019-05-26T19:21:16.585Z,10.27
2019-05-26T19:23:45.769Z,8.63
2019-05-26T19:26:15.005Z,13.27
2019-05-26T19:28:44.197Z,11.67
2019-05-26T19:31:13.416Z,11.13
2019-05-26T19:33:42.701Z,11.37
2019-05-26T19:36:12.727Z,9.83
2019-05-26T19:38:41.946Z,8.77
2019-05-26T19:41:11.118Z,7.93
2019-05-26T19:43:40.418Z,11.30
2019-05-26T19:46:09.588Z,7.93
2019-05-26T19:48:38.769Z,9.03
2019-05-26T19:51:07.966Z,9.70
2019-05-26T19:53:37.184Z,7.53
2019-05-26T19:56:06.368Z,7.53
2019-05-26T19:58:35.681Z,7.50
2019-05-26T20:01:04.880Z,8.37
2019-05-26T20:03:34.856Z,8.60
2019-05-26T20:06:04.077Z,7.40
2019-05-26T20:08:33.293Z,8.10
2019-05-26T20:11:02.481Z,13.53
2019-05-26T20:13:31.654Z,7.80
2019-05-26T20:16:00.905Z,9.37
2019-05-26T20:18:30.115Z,10.13
2019-05-26T20:20:59.297Z,7.00
2019-05-26T20:23:28.502Z,8.37
2019-05-26T20:25:57.661Z,7.23
2019-05-26T20:28:26.844Z,8.03
2019-05-26T20:30:56.047Z,9.53
2019-05-26T20:33:25.231Z,9.30
2019-05-26T20:35:54.485Z,8.57
2019-05-26T20:38:23.668Z,6.83
2019-05-26T20:40:52.892Z,9.20
2019-05-26T20:43:25.024Z,7.37
2019-05-26T20:45:51.413Z,8.20
2019-05-26T20:48:20.575Z,6.67
2019-05-26T20:50:49.757Z,11.00
2019-05-26T20:53:18.976Z,11.40
2019-05-26T20:55:48.193Z,6.57
2019-05-26T20:58:17.581Z,7.23
2019-05-26T21:00:46.780Z,10.13
2019-05-26T21:03:15.954Z,9.93
2019-05-26T21:05:45.143Z,10.27
2019-05-26T21:08:14.870Z,8.43
2019-05-26T21:10:44.059Z,9.00
2019-05-26T21:13:13.289Z,7.60
2019-05-26T21:15:42.469Z,6.80
2019-05-26T21:18:11.624Z,8.47
2019-05-26T21:20:40.843Z,8.40
2019-05-26T21:23:10.045Z,10.37
2019-05-26T21:25:39.231Z,9.13
2019-05-26T21:28:08.469Z,8.97
2019-05-26T21:30:37.637Z,8.10
2019-05-26T21:33:06.806Z,8.23
2019-05-26T21:35:36.003Z,10.90
2019-05-26T21:38:05.172Z,8.17
2019-05-26T21:40:34.355Z,7.23
2019-05-26T21:43:03.626Z,7.43
2019-05-26T21:45:32.814Z,8.87
2019-05-26T21:48:02.053Z,8.37
2019-05-26T21:50:31.282Z,10.53
2019-05-26T21:53:00.481Z,10.23
2019-05-26T21:55:29.678Z,8.47
2019-05-26T21:57:58.845Z,10.13
2019-05-26T22:00:30.346Z,8.23
2019-05-26T22:02:59.654Z,10.80
2019-05-26T22:05:28.822Z,9.03
2019-05-26T22:07:58.005Z,8.30
2019-05-26T22:10:27.182Z,8.63
2019-05-26T22:12:56.348Z,6.70
2019-05-26T22:15:25.559Z,7.40
2019-05-26T22:17:54.766Z,14.47
2019-05-26T22:20:23.963Z,9.90
2019-05-26T22:22:53.133Z,10.00
2019-05-26T22:25:22.300Z,10.87
2019-05-26T22:27:51.619Z,15.50
2019-05-26T22:30:20.799Z,9.57
2019-05-26T22:32:49.972Z,8.43
2019-05-26T22:35:19.120Z,8.83
2019-05-26T22:37:48.313Z,8.20
2019-05-26T22:40:17.476Z,12.73
2019-05-26T22:42:46.687Z,11.13
2019-05-26T22:45:15.901Z,10.03
2019-05-26T22:47:45.260Z,9.87
2019-05-26T22:50:14.400Z,13.47
2019-05-26T22:52:43.591Z,8.57
2019-05-26T22:55:12.830Z,9.43
2019-05-26T22:57:42.027Z,9.63
2019-05-26T23:00:11.261Z,9.83
2019-05-26T23:02:40.550Z,6.87
2019-05-26T23:05:09.627Z,6.03
2019-05-26T23:07:38.814Z,9.03
2019-05-26T23:10:08.021Z,9.33
2019-05-26T23:12:37.256Z,8.97
2019-05-26T23:15:06.492Z,9.33
2019-05-26T23:17:35.701Z,10.77
2019-05-26T23:20:04.945Z,12.67
2019-05-26T23:22:34.143Z,9.90
2019-05-26T23:25:03.345Z,7.67
2019-05-26T23:27:32.544Z,10.07
2019-05-26T23:30:01.725Z,9.27
2019-05-26T23:32:30.885Z,8.00
2019-05-26T23:35:00.142Z,8.47
2019-05-26T23:37:29.312Z,8.93
2019-05-26T23:39:58.463Z,9.77
2019-05-26T23:42:27.641Z,7.93
2019-05-26T23:44:56.809Z,10.43
2019-05-26T23:47:26.035Z,7.57
2019-05-26T23:49:55.191Z,10.23
2019-05-26T23:52:24.400Z,8.23
2019-05-26T23:54:53.570Z,7.40
2019-05-26T23:57:22.752Z,7.97
2019-05-26T23:59:51.906Z,6.77
